createdAt,value
2023-04-30T00:00:44.066Z,13.71
2023-04-30T00:01:45.719Z,13.70
2023-04-30T00:02:47.381Z,13.77
2023-04-30T00:03:49.217Z,13.84
2023-04-30T00:04:50.956Z,13.94
2023-04-30T00:05:52.529Z,13.98
2023-04-30T00:06:54.221Z,13.99
2023-04-30T00:07:56.252Z,13.96
2023-04-30T00:08:57.825Z,13.90
2023-04-30T00:09:59.349Z,13.89
2023-04-30T00:11:00.884Z,13.89
2023-04-30T00:12:02.530Z,13.85
2023-04-30T00:13:04.043Z,13.77
2023-04-30T00:14:05.633Z,13.70
2023-04-30T00:15:07.526Z,13.63
2023-04-30T00:16:09.192Z,13.61
2023-04-30T00:17:10.762Z,13.63
2023-04-30T00:18:12.508Z,13.65
2023-04-30T00:19:14.474Z,13.70
2023-04-30T00:20:16.450Z,13.75
2023-04-30T00:21:18.089Z,13.79
2023-04-30T00:22:19.663Z,13.83
2023-04-30T00:23:21.241Z,13.87
2023-04-30T00:24:22.840Z,13.90
2023-04-30T00:25:24.741Z,13.92
2023-04-30T00:26:26.859Z,13.93
2023-04-30T00:27:28.503Z,13.96
2023-04-30T00:28:30.042Z,13.89
2023-04-30T00:29:31.563Z,13.77
2023-04-30T00:30:33.149Z,13.77
2023-04-30T00:31:34.777Z,13.81
2023-04-30T00:32:36.489Z,13.86
2023-04-30T00:33:38.036Z,13.92
2023-04-30T00:34:39.647Z,13.99
2023-04-30T00:35:41.783Z,14.03
2023-04-30T00:36:43.383Z,14.07
2023-04-30T00:37:45.002Z,14.12
2023-04-30T00:38:46.542Z,14.18
2023-04-30T00:39:48.079Z,14.20
2023-04-30T00:40:49.884Z,14.25
2023-04-30T00:41:51.395Z,14.28
2023-04-30T00:42:55.756Z,14.31
2023-04-30T00:43:57.423Z,14.32
2023-04-30T00:44:58.977Z,14.33
2023-04-30T00:46:00.676Z,14.35
2023-04-30T00:47:02.275Z,14.34
2023-04-30T00:48:04.264Z,14.33
2023-04-30T00:49:05.990Z,14.28
2023-04-30T00:50:07.916Z,14.20
2023-04-30T00:51:09.560Z,14.21
2023-04-30T00:52:11.238Z,14.24
2023-04-30T00:53:13.057Z,14.27
2023-04-30T00:54:14.798Z,14.28
2023-04-30T00:55:17.147Z,14.21
2023-04-30T00:56:18.799Z,14.11
2023-04-30T00:57:21.066Z,14.08
2023-04-30T00:58:23.212Z,14.11
2023-04-30T00:59:25.214Z,14.15
2023-04-30T01:00:27.735Z,14.18
2023-04-30T01:01:29.729Z,14.24
2023-04-30T01:02:31.872Z,14.24
2023-04-30T01:03:36.195Z,14.25
2023-04-30T01:04:38.853Z,14.26
2023-04-30T01:05:40.740Z,14.22
2023-04-30T01:06:43.358Z,14.26
2023-04-30T01:07:46.474Z,14.28
2023-04-30T01:08:48.986Z,14.28
2023-04-30T01:09:50.939Z,14.30
2023-04-30T01:10:58.245Z,14.33
2023-04-30T01:12:18.566Z,14.36
2023-04-30T01:13:30.305Z,14.36
2023-04-30T01:14:58.254Z,14.35
2023-04-30T01:16:10.801Z,14.30
2023-04-30T01:17:29.368Z,14.28
2023-04-30T01:18:42.273Z,14.22
2023-04-30T01:19:47.171Z,14.16
2023-04-30T01:20:59.180Z,14.08
2023-04-30T01:22:04.236Z,14.03
2023-04-30T01:23:37.271Z,14.04
2023-04-30T01:24:38.775Z,14.04
2023-04-30T01:25:40.435Z,14.06
2023-04-30T01:26:57.252Z,14.08
2023-04-30T01:28:02.017Z,14.12
2023-04-30T01:29:04.851Z,14.14
2023-04-30T01:30:07.409Z,14.11
2023-04-30T01:31:16.620Z,14.04
2023-04-30T01:32:18.423Z,14.00
2023-04-30T01:33:20.011Z,13.94
2023-04-30T01:34:21.629Z,13.88
2023-04-30T01:35:41.362Z,13.92
2023-04-30T01:37:10.883Z,14.01
2023-04-30T01:38:15.467Z,14.06
2023-04-30T01:39:35.138Z,14.05
2023-04-30T01:40:58.070Z,14.05
2023-04-30T01:42:22.009Z,14.06
2023-04-30T01:43:32.271Z,14.07
2023-04-30T01:45:18.786Z,14.08
2023-04-30T01:46:27.362Z,14.02
2023-04-30T01:47:47.724Z,14.00
2023-04-30T01:49:18.449Z,14.02
2023-04-30T01:50:36.998Z,14.04
2023-04-30T01:51:43.969Z,14.04
2023-04-30T01:52:50.346Z,14.02
2023-04-30T01:53:55.740Z,14.03
2023-04-30T01:55:03.203Z,14.04
2023-04-30T01:56:09.577Z,13.97
2023-04-30T01:57:21.599Z,13.92
2023-04-30T01:58:24.823Z,13.84
2023-04-30T01:59:26.789Z,13.79
2023-04-30T02:00:30.753Z,13.73
2023-04-30T02:01:33.659Z,13.71
2023-04-30T02:02:35.347Z,13.66
2023-04-30T02:03:37.055Z,13.54
2023-04-30T02:04:38.678Z,13.42
2023-04-30T02:05:40.246Z,13.34
2023-04-30T02:06:41.949Z,13.37
2023-04-30T02:07:45.650Z,13.38
2023-04-30T02:08:47.297Z,13.43
2023-04-30T02:09:48.803Z,13.43
2023-04-30T02:10:50.317Z,13.42
2023-04-30T02:11:51.855Z,13.41
2023-04-30T02:12:54.203Z,13.34
2023-04-30T02:13:55.815Z,13.30
2023-04-30T02:14:57.736Z,13.21
2023-04-30T02:15:59.296Z,13.17
2023-04-30T02:17:00.927Z,13.19
2023-04-30T02:18:02.471Z,13.22
2023-04-30T02:19:03.993Z,13.28
2023-04-30T02:20:06.176Z,13.32
2023-04-30T02:21:07.716Z,13.36
2023-04-30T02:22:09.950Z,13.40
2023-04-30T02:23:11.556Z,13.44
2023-04-30T02:24:13.181Z,13.46
2023-04-30T02:25:14.735Z,13.48
2023-04-30T02:26:16.248Z,13.52
2023-04-30T02:27:18.266Z,13.54
2023-04-30T02:28:19.840Z,13.54
2023-04-30T02:29:21.404Z,13.55
2023-04-30T02:30:22.979Z,13.54
2023-04-30T02:31:24.717Z,13.57
2023-04-30T02:32:26.537Z,13.60
2023-04-30T02:33:28.053Z,13.61
2023-04-30T02:34:29.597Z,13.60
2023-04-30T02:35:31.218Z,13.59
2023-04-30T02:36:36.310Z,13.63
2023-04-30T02:37:38.072Z,13.68
2023-04-30T02:38:39.624Z,13.73
2023-04-30T02:39:41.633Z,13.78
2023-04-30T02:40:43.204Z,13.82
2023-04-30T02:41:44.823Z,13.86
2023-04-30T02:42:46.436Z,13.92
2023-04-30T02:43:48.033Z,13.95
2023-04-30T02:44:49.597Z,13.97
2023-04-30T02:45:51.253Z,14.00
2023-04-30T02:46:53.030Z,14.00
2023-04-30T02:47:54.611Z,13.99
2023-04-30T02:48:56.268Z,13.95
2023-04-30T02:49:57.764Z,13.91
2023-04-30T02:50:59.238Z,13.85
2023-04-30T02:52:01.083Z,13.77
2023-04-30T02:53:02.667Z,13.71
2023-04-30T02:54:04.236Z,13.70
2023-04-30T02:55:06.659Z,13.71
2023-04-30T02:56:08.345Z,13.72
2023-04-30T02:57:10.018Z,13.74
2023-04-30T02:58:11.600Z,13.77
2023-04-30T02:59:13.616Z,13.79
2023-04-30T03:00:15.535Z,13.80
2023-04-30T03:01:17.322Z,13.75
2023-04-30T03:02:21.583Z,13.74
2023-04-30T03:03:23.575Z,13.72
2023-04-30T03:04:26.079Z,13.71
2023-04-30T03:05:28.508Z,13.69
2023-04-30T03:06:31.353Z,13.65
2023-04-30T03:07:32.890Z,13.46
2023-04-30T03:08:34.523Z,13.04
2023-04-30T03:09:36.619Z,12.82
2023-04-30T03:10:38.139Z,12.76
2023-04-30T03:11:39.702Z,12.67
2023-04-30T03:12:41.227Z,12.73
2023-04-30T03:13:43.494Z,12.80
2023-04-30T03:14:45.003Z,12.87
2023-04-30T03:15:46.668Z,12.93
2023-04-30T03:16:48.398Z,12.98
2023-04-30T03:17:50.025Z,13.03
2023-04-30T03:18:51.619Z,13.09
2023-04-30T03:19:53.566Z,13.13
2023-04-30T03:20:55.459Z,13.15
2023-04-30T03:21:57.009Z,13.19
2023-04-30T03:22:58.540Z,13.21
2023-04-30T03:24:00.063Z,13.19
2023-04-30T03:25:01.664Z,13.26
2023-04-30T03:26:03.412Z,13.28
2023-04-30T03:27:04.952Z,13.30
2023-04-30T03:28:06.592Z,13.32
2023-04-30T03:29:08.134Z,13.33
2023-04-30T03:30:09.922Z,13.35
2023-04-30T03:31:11.642Z,13.32
2023-04-30T03:32:13.233Z,13.32
2023-04-30T03:33:14.784Z,13.31
2023-04-30T03:34:16.608Z,13.29
2023-04-30T03:35:19.157Z,13.26
2023-04-30T03:36:21.128Z,13.28
2023-04-30T03:37:22.650Z,13.29
2023-04-30T03:38:24.412Z,13.31
2023-04-30T03:39:26.153Z,13.31
2023-04-30T03:40:27.911Z,13.24
2023-04-30T03:41:29.597Z,13.08
2023-04-30T03:42:31.132Z,12.88
2023-04-30T03:43:32.682Z,12.64
2023-04-30T03:44:34.288Z,12.51
2023-04-30T03:45:36.364Z,12.51
2023-04-30T03:46:38.053Z,12.45
2023-04-30T03:47:39.793Z,12.34
2023-04-30T03:48:41.438Z,12.25
2023-04-30T03:49:42.999Z,12.23
2023-04-30T03:50:45.274Z,12.19
2023-04-30T03:51:46.980Z,12.19
2023-04-30T03:52:48.602Z,12.13
2023-04-30T03:53:50.149Z,12.06
2023-04-30T03:54:51.723Z,12.06
2023-04-30T03:55:54.546Z,12.06
2023-04-30T03:56:56.163Z,11.96
2023-04-30T03:57:58.438Z,11.86
2023-04-30T03:59:00.109Z,11.78
2023-04-30T04:00:01.989Z,11.72
2023-04-30T04:01:04.176Z,11.60
2023-04-30T04:02:06.497Z,11.55
2023-04-30T04:03:08.440Z,11.59
2023-04-30T04:04:10.236Z,11.66
2023-04-30T04:05:11.892Z,11.75
2023-04-30T04:06:13.428Z,11.71
2023-04-30T04:07:15.120Z,11.65
2023-04-30T04:08:16.695Z,11.57
2023-04-30T04:09:18.232Z,11.60
2023-04-30T04:10:19.879Z,11.72
2023-04-30T04:11:21.498Z,11.84
2023-04-30T04:12:23.664Z,11.98
2023-04-30T04:13:25.327Z,12.04
2023-04-30T04:14:26.949Z,12.13
2023-04-30T04:15:28.473Z,12.22
2023-04-30T04:16:30.123Z,12.29
2023-04-30T04:17:31.957Z,12.35
2023-04-30T04:18:33.570Z,12.48
2023-04-30T04:19:35.086Z,12.51
2023-04-30T04:20:36.636Z,12.57
2023-04-30T04:21:38.203Z,12.60
2023-04-30T04:22:39.941Z,12.61
2023-04-30T04:23:41.664Z,12.64
2023-04-30T04:24:43.260Z,12.67
2023-04-30T04:25:46.584Z,12.71
2023-04-30T04:26:48.593Z,12.72
2023-04-30T04:27:50.363Z,12.74
2023-04-30T04:28:52.224Z,12.74
2023-04-30T04:29:55.056Z,12.71
2023-04-30T04:30:56.937Z,12.70
2023-04-30T04:32:00.509Z,12.69
2023-04-30T04:33:02.431Z,12.70
2023-04-30T04:34:05.209Z,12.67
2023-04-30T04:35:07.175Z,12.66
2023-04-30T04:36:09.688Z,12.63
2023-04-30T04:37:12.541Z,12.58
2023-04-30T04:38:14.992Z,12.56
2023-04-30T04:39:16.666Z,12.60
2023-04-30T04:40:18.627Z,12.62
2023-04-30T04:41:20.970Z,12.62
2023-04-30T04:42:23.036Z,12.58
2023-04-30T04:43:24.663Z,12.54
2023-04-30T04:44:27.238Z,12.48
2023-04-30T04:45:28.822Z,12.39
2023-04-30T04:46:32.024Z,12.35
2023-04-30T04:47:33.729Z,12.17
2023-04-30T04:48:35.495Z,12.02
2023-04-30T04:49:37.055Z,11.92
2023-04-30T04:50:38.634Z,11.94
2023-04-30T04:51:40.387Z,11.94
2023-04-30T04:52:41.989Z,11.90
2023-04-30T04:53:43.690Z,11.92
2023-04-30T04:54:45.293Z,11.94
2023-04-30T04:55:46.852Z,12.07
2023-04-30T04:56:48.542Z,12.13
2023-04-30T04:57:50.138Z,12.30
2023-04-30T04:58:51.652Z,12.39
2023-04-30T04:59:53.493Z,12.48
2023-04-30T05:00:55.404Z,12.60
2023-04-30T05:01:57.017Z,12.61
2023-04-30T05:02:58.770Z,12.47
2023-04-30T05:04:00.416Z,12.36
2023-04-30T05:05:02.173Z,12.26
2023-04-30T05:06:04.371Z,12.22
2023-04-30T05:07:06.220Z,12.24
2023-04-30T05:08:07.768Z,12.30
2023-04-30T05:09:09.635Z,12.34
2023-04-30T05:10:11.297Z,12.37
2023-04-30T05:11:14.240Z,12.48
2023-04-30T05:12:17.125Z,12.57
2023-04-30T05:13:18.672Z,12.64
2023-04-30T05:14:21.169Z,12.69
2023-04-30T05:15:22.740Z,12.73
2023-04-30T05:16:24.389Z,12.78
2023-04-30T05:17:26.429Z,12.86
2023-04-30T05:18:27.994Z,12.91
2023-04-30T05:19:29.593Z,12.89
2023-04-30T05:20:31.334Z,12.71
2023-04-30T05:21:33.131Z,12.52
2023-04-30T05:22:34.815Z,12.31
2023-04-30T05:23:36.373Z,12.25
2023-04-30T05:24:37.943Z,12.18
2023-04-30T05:25:39.486Z,12.15
2023-04-30T05:26:41.098Z,12.23
2023-04-30T05:27:42.618Z,12.17
2023-04-30T05:28:44.242Z,12.24
2023-04-30T05:29:45.869Z,12.33
2023-04-30T05:30:47.402Z,12.44
2023-04-30T05:31:49.155Z,12.53
2023-04-30T05:32:52.724Z,12.63
2023-04-30T05:33:54.243Z,12.73
2023-04-30T05:34:55.839Z,12.81
2023-04-30T05:35:57.382Z,12.90
2023-04-30T05:36:58.923Z,13.02
2023-04-30T05:38:01.118Z,13.08
2023-04-30T05:39:02.689Z,13.07
2023-04-30T05:40:06.309Z,13.04
2023-04-30T05:41:08.099Z,13.03
2023-04-30T05:42:09.617Z,13.00
2023-04-30T05:43:11.284Z,13.08
2023-04-30T05:44:12.828Z,13.18
2023-04-30T05:45:17.168Z,13.29
2023-04-30T05:46:18.923Z,13.26
2023-04-30T05:47:20.758Z,13.22
2023-04-30T05:48:22.256Z,13.35
2023-04-30T05:49:23.868Z,13.44
2023-04-30T05:50:25.416Z,13.54
2023-04-30T05:51:27.927Z,13.61
2023-04-30T05:52:29.477Z,13.59
2023-04-30T05:53:31.033Z,13.55
2023-04-30T05:54:32.663Z,13.66
2023-04-30T05:55:34.627Z,13.74
2023-04-30T05:56:36.213Z,13.81
2023-04-30T05:57:37.823Z,13.82
2023-04-30T05:58:39.618Z,13.89
2023-04-30T05:59:41.431Z,13.95
2023-04-30T06:00:42.956Z,13.97
2023-04-30T06:01:44.630Z,13.82
2023-04-30T06:02:46.336Z,13.64
2023-04-30T06:03:47.939Z,13.68
2023-04-30T06:04:49.548Z,13.72
2023-04-30T06:05:51.179Z,13.64
2023-04-30T06:06:52.821Z,13.66
2023-04-30T06:07:54.412Z,13.58
2023-04-30T06:08:56.272Z,13.59
2023-04-30T06:09:57.922Z,13.57
2023-04-30T06:11:00.637Z,13.59
2023-04-30T06:12:02.524Z,13.70
2023-04-30T06:13:04.135Z,13.78
2023-04-30T06:14:06.004Z,13.85
2023-04-30T06:15:07.988Z,13.99
2023-04-30T06:16:09.928Z,14.12
2023-04-30T06:17:14.457Z,14.04
2023-04-30T06:18:16.341Z,13.98
2023-04-30T06:19:18.175Z,14.00
2023-04-30T06:20:19.711Z,14.02
2023-04-30T06:21:21.336Z,14.11
2023-04-30T06:22:23.009Z,14.14
2023-04-30T06:23:24.544Z,14.05
2023-04-30T06:24:27.676Z,14.08
2023-04-30T06:25:29.207Z,14.22
2023-04-30T06:26:31.070Z,14.25
2023-04-30T06:27:32.693Z,14.21
2023-04-30T06:28:34.288Z,14.21
2023-04-30T06:29:35.941Z,14.27
2023-04-30T06:30:37.519Z,14.46
2023-04-30T06:31:39.122Z,14.64
2023-04-30T06:32:41.476Z,14.66
2023-04-30T06:33:43.117Z,14.79
2023-04-30T06:34:44.644Z,14.83
2023-04-30T06:35:46.540Z,14.66
2023-04-30T06:36:48.118Z,14.68
2023-04-30T06:37:49.625Z,14.71
2023-04-30T06:38:51.226Z,14.80
2023-04-30T06:39:53.045Z,14.98
2023-04-30T06:40:55.105Z,15.09
2023-04-30T06:41:56.713Z,15.17
2023-04-30T06:42:58.249Z,15.25
2023-04-30T06:43:59.858Z,15.37
2023-04-30T06:45:06.732Z,15.58
2023-04-30T06:46:08.422Z,15.91
2023-04-30T06:47:09.945Z,16.11
2023-04-30T06:48:11.497Z,16.31
2023-04-30T06:49:13.059Z,16.37
2023-04-30T06:50:15.828Z,16.47
2023-04-30T06:51:17.702Z,16.56
2023-04-30T06:52:19.314Z,16.63
2023-04-30T06:53:21.642Z,16.63
2023-04-30T06:54:23.538Z,16.74
2023-04-30T06:55:25.242Z,16.71
2023-04-30T06:56:26.798Z,16.71
2023-04-30T06:57:28.415Z,16.62
2023-04-30T06:58:29.930Z,16.53
2023-04-30T06:59:31.507Z,16.50
2023-04-30T07:00:33.069Z,16.62
2023-04-30T07:01:34.696Z,16.80
2023-04-30T07:02:36.318Z,17.04
2023-04-30T07:03:38.086Z,17.22
2023-04-30T07:04:39.741Z,17.34
2023-04-30T07:05:41.723Z,17.46
2023-04-30T07:06:43.321Z,17.66
2023-04-30T07:07:44.869Z,17.87
2023-04-30T07:08:46.550Z,18.10
2023-04-30T07:09:49.625Z,18.30
2023-04-30T07:10:52.624Z,18.42
2023-04-30T07:11:54.170Z,18.29
2023-04-30T07:12:56.673Z,18.20
2023-04-30T07:13:58.266Z,18.10
2023-04-30T07:15:00.011Z,18.12
2023-04-30T07:16:01.817Z,18.07
2023-04-30T07:17:03.521Z,18.30
2023-04-30T07:18:05.091Z,18.60
2023-04-30T07:19:06.938Z,18.79
2023-04-30T07:20:09.368Z,18.79
2023-04-30T07:21:10.920Z,18.75
2023-04-30T07:22:12.761Z,18.32
2023-04-30T07:23:14.338Z,17.92
2023-04-30T07:24:15.838Z,17.88
2023-04-30T07:25:17.525Z,17.94
2023-04-30T07:26:19.430Z,18.23
2023-04-30T07:27:21.139Z,18.19
2023-04-30T07:28:22.892Z,18.15
2023-04-30T07:29:24.414Z,18.09
2023-04-30T07:30:26.415Z,18.25
2023-04-30T07:31:28.037Z,18.54
2023-04-30T07:32:29.573Z,18.74
2023-04-30T07:33:31.414Z,18.89
2023-04-30T07:34:33.295Z,18.79
2023-04-30T07:35:34.979Z,18.85
2023-04-30T07:36:38.679Z,19.00
2023-04-30T07:37:43.973Z,19.25
2023-04-30T07:38:45.488Z,19.50
2023-04-30T07:39:47.033Z,19.71
2023-04-30T07:40:48.603Z,19.80
2023-04-30T07:41:50.256Z,19.68
2023-04-30T07:42:51.796Z,19.55
2023-04-30T07:43:53.607Z,19.72
2023-04-30T07:44:55.175Z,19.94
2023-04-30T07:45:56.788Z,20.06
2023-04-30T07:46:58.423Z,19.96
2023-04-30T07:47:59.967Z,19.65
2023-04-30T07:49:01.511Z,19.35
2023-04-30T07:50:03.454Z,19.38
2023-04-30T07:51:05.087Z,19.36
2023-04-30T07:52:08.653Z,19.43
2023-04-30T07:53:10.446Z,19.46
2023-04-30T07:54:12.079Z,19.48
2023-04-30T07:55:13.675Z,19.35
2023-04-30T07:56:15.362Z,19.51
2023-04-30T07:57:16.889Z,19.77
2023-04-30T07:58:18.440Z,20.04
2023-04-30T07:59:21.425Z,20.23
2023-04-30T08:00:23.152Z,20.39
2023-04-30T08:01:25.386Z,20.49
2023-04-30T08:02:27.139Z,20.51
2023-04-30T08:03:28.961Z,20.56
2023-04-30T08:04:30.713Z,20.54
2023-04-30T08:05:32.417Z,20.54
2023-04-30T08:06:34.367Z,20.53
2023-04-30T08:07:35.922Z,20.41
2023-04-30T08:08:37.576Z,20.34
2023-04-30T08:09:39.156Z,20.21
2023-04-30T08:10:41.941Z,20.10
2023-04-30T08:11:43.492Z,20.01
2023-04-30T08:12:45.186Z,20.08
2023-04-30T08:13:47.055Z,20.17
2023-04-30T08:14:48.563Z,20.12
2023-04-30T08:15:50.092Z,20.20
2023-04-30T08:16:52.180Z,20.34
2023-04-30T08:17:53.802Z,20.57
2023-04-30T08:18:55.546Z,20.68
2023-04-30T08:19:57.105Z,20.79
2023-04-30T08:20:59.794Z,20.90
2023-04-30T08:22:01.371Z,20.99
2023-04-30T08:23:02.908Z,21.10
2023-04-30T08:24:05.030Z,21.15
2023-04-30T08:25:06.909Z,21.11
2023-04-30T08:26:08.439Z,20.96
2023-04-30T08:27:10.067Z,20.94
2023-04-30T08:28:11.610Z,20.96
2023-04-30T08:29:13.156Z,20.97
2023-04-30T08:30:14.776Z,20.97
2023-04-30T08:31:16.374Z,20.86
2023-04-30T08:32:19.966Z,20.77
2023-04-30T08:33:21.803Z,20.79
2023-04-30T08:34:23.392Z,20.70
2023-04-30T08:35:25.026Z,20.53
2023-04-30T08:36:27.718Z,20.41
2023-04-30T08:37:29.254Z,20.28
2023-04-30T08:38:30.784Z,20.16
2023-04-30T08:39:32.517Z,20.08
2023-04-30T08:40:50.296Z,19.96
2023-04-30T08:41:56.150Z,20.07
2023-04-30T08:43:05.898Z,20.21
2023-04-30T08:44:08.618Z,20.21
2023-04-30T08:45:13.193Z,20.24
2023-04-30T08:46:17.143Z,20.23
2023-04-30T08:47:20.805Z,20.17
2023-04-30T08:48:24.986Z,20.17
2023-04-30T08:49:28.211Z,20.02
2023-04-30T08:50:29.783Z,19.87
2023-04-30T08:51:33.197Z,19.85
2023-04-30T08:52:38.284Z,19.82
2023-04-30T08:53:41.125Z,19.80
2023-04-30T08:54:44.347Z,19.71
2023-04-30T08:55:47.303Z,19.69
2023-04-30T08:56:48.855Z,19.68
2023-04-30T08:57:50.483Z,19.58
2023-04-30T08:58:52.072Z,19.52
2023-04-30T08:59:56.919Z,19.52
2023-04-30T09:01:00.048Z,19.59
2023-04-30T09:02:04.517Z,19.60
2023-04-30T09:03:07.287Z,19.49
2023-04-30T09:04:08.987Z,19.46
2023-04-30T09:05:13.124Z,19.47
2023-04-30T09:06:17.803Z,19.49
2023-04-30T09:07:23.692Z,19.33
2023-04-30T09:08:44.598Z,19.31
2023-04-30T09:09:46.156Z,19.32
2023-04-30T09:10:47.836Z,19.22
2023-04-30T09:11:49.377Z,19.17
2023-04-30T09:13:07.072Z,19.15
2023-04-30T09:14:08.752Z,19.22
2023-04-30T09:15:10.870Z,19.30
2023-04-30T09:16:12.636Z,19.33
2023-04-30T09:17:22.176Z,19.30
2023-04-30T09:18:23.748Z,19.21
2023-04-30T09:19:30.543Z,19.18
2023-04-30T09:20:32.276Z,19.16
2023-04-30T09:21:37.822Z,19.09
2023-04-30T09:22:41.852Z,19.12
2023-04-30T09:23:57.556Z,19.24
2023-04-30T09:24:59.063Z,19.30
2023-04-30T09:26:01.061Z,19.29
2023-04-30T09:27:16.249Z,19.15
2023-04-30T09:28:18.889Z,19.15
2023-04-30T09:29:20.520Z,19.16
2023-04-30T09:30:34.929Z,19.13
2023-04-30T09:31:38.670Z,19.13
2023-04-30T09:32:56.790Z,19.14
2023-04-30T09:33:58.567Z,19.23
2023-04-30T09:35:00.187Z,19.31
2023-04-30T09:36:09.443Z,19.35
2023-04-30T09:37:11.913Z,19.37
2023-04-30T09:38:31.064Z,19.46
2023-04-30T09:39:32.848Z,19.57
2023-04-30T09:40:40.463Z,19.75
2023-04-30T09:41:42.306Z,19.78
2023-04-30T09:42:59.496Z,19.85
2023-04-30T09:44:01.897Z,19.89
2023-04-30T09:45:05.337Z,19.89
2023-04-30T09:46:06.929Z,19.91
2023-04-30T09:47:14.253Z,20.07
2023-04-30T09:48:17.880Z,20.12
2023-04-30T09:49:20.062Z,20.17
2023-04-30T09:50:21.762Z,20.21
2023-04-30T09:51:23.536Z,20.12
2023-04-30T09:52:25.265Z,20.14
2023-04-30T09:53:27.105Z,20.20
2023-04-30T09:54:30.605Z,20.23
2023-04-30T09:55:33.335Z,20.27
2023-04-30T09:56:39.624Z,20.30
2023-04-30T09:57:41.499Z,20.40
2023-04-30T09:58:50.025Z,20.51
2023-04-30T09:59:53.555Z,20.57
2023-04-30T10:00:59.740Z,20.58
2023-04-30T10:02:03.232Z,20.42
2023-04-30T10:03:10.639Z,20.46
2023-04-30T10:04:12.438Z,20.48
2023-04-30T10:05:14.264Z,20.50
2023-04-30T10:06:19.491Z,20.53
2023-04-30T10:07:22.676Z,20.51
2023-04-30T10:08:28.463Z,20.52
2023-04-30T10:09:40.017Z,20.55
2023-04-30T10:10:44.563Z,20.58
2023-04-30T10:11:47.192Z,20.55
2023-04-30T10:12:54.344Z,20.53
2023-04-30T10:14:11.874Z,20.58
2023-04-30T10:15:17.974Z,20.59
2023-04-30T10:16:37.901Z,20.47
2023-04-30T10:17:41.594Z,20.37
2023-04-30T10:18:44.053Z,20.26
2023-04-30T10:19:52.577Z,20.15
2023-04-30T10:20:55.565Z,20.14
2023-04-30T10:21:57.604Z,20.10
2023-04-30T10:23:00.784Z,20.04
2023-04-30T10:24:03.881Z,19.97
2023-04-30T10:25:07.099Z,19.87
2023-04-30T10:26:10.974Z,19.87
2023-04-30T10:27:13.268Z,19.89
2023-04-30T10:28:16.754Z,19.87
2023-04-30T10:29:18.689Z,19.92
2023-04-30T10:30:22.483Z,19.97
2023-04-30T10:31:24.511Z,19.87
2023-04-30T10:32:36.103Z,19.78
2023-04-30T10:34:11.296Z,19.89
2023-04-30T10:35:13.359Z,19.95
2023-04-30T10:36:18.082Z,20.10
2023-04-30T10:37:25.637Z,20.08
2023-04-30T10:38:30.543Z,20.05
2023-04-30T10:39:33.098Z,20.06
2023-04-30T10:40:37.373Z,20.10
2023-04-30T10:41:39.221Z,20.14
2023-04-30T10:42:50.740Z,20.12
2023-04-30T10:43:56.654Z,20.19
2023-04-30T10:44:58.265Z,20.21
2023-04-30T10:46:00.272Z,20.37
2023-04-30T10:47:03.347Z,20.51
2023-04-30T10:48:06.824Z,20.56
2023-04-30T10:49:08.768Z,20.58
2023-04-30T10:50:10.994Z,20.58
2023-04-30T10:51:12.556Z,20.66
2023-04-30T10:52:14.279Z,20.76
2023-04-30T10:53:18.917Z,20.78
2023-04-30T10:54:28.749Z,20.88
2023-04-30T10:55:31.257Z,21.02
2023-04-30T10:56:33.404Z,20.93
2023-04-30T10:57:48.350Z,20.89
2023-04-30T10:58:51.239Z,20.77
2023-04-30T11:00:16.209Z,20.66
2023-04-30T11:01:17.859Z,20.41
2023-04-30T11:02:19.686Z,20.37
2023-04-30T11:03:22.556Z,20.41
2023-04-30T11:04:24.509Z,20.50
2023-04-30T11:05:37.986Z,20.24
2023-04-30T11:07:02.055Z,19.91
2023-04-30T11:08:04.100Z,19.88
2023-04-30T11:09:05.727Z,19.75
2023-04-30T11:10:08.708Z,19.69
2023-04-30T11:11:11.551Z,19.58
2023-04-30T11:12:21.853Z,19.54
2023-04-30T11:13:26.456Z,19.38
2023-04-30T11:14:28.512Z,19.26
2023-04-30T11:15:48.319Z,19.20
2023-04-30T11:16:51.246Z,19.14
2023-04-30T11:17:58.541Z,19.06
2023-04-30T11:19:11.270Z,18.98
2023-04-30T11:20:14.979Z,18.92
2023-04-30T11:21:16.532Z,18.88
2023-04-30T11:22:20.092Z,18.92
2023-04-30T11:23:38.509Z,18.97
2023-04-30T11:24:59.984Z,18.93
2023-04-30T11:26:01.704Z,18.93
2023-04-30T11:27:06.573Z,18.90
2023-04-30T11:28:13.410Z,18.88
2023-04-30T11:29:15.573Z,18.97
2023-04-30T11:30:19.107Z,19.00
2023-04-30T11:31:21.024Z,19.07
2023-04-30T11:32:24.198Z,19.09
2023-04-30T11:33:29.101Z,19.14
2023-04-30T11:34:31.289Z,19.18
2023-04-30T11:35:33.630Z,19.17
2023-04-30T11:36:35.446Z,19.17
2023-04-30T11:37:39.836Z,19.14
2023-04-30T11:38:41.929Z,19.15
2023-04-30T11:39:43.715Z,19.16
2023-04-30T11:40:46.208Z,19.16
2023-04-30T11:41:47.731Z,19.20
2023-04-30T11:42:49.279Z,19.29
2023-04-30T11:43:50.813Z,19.34
2023-04-30T11:44:52.559Z,19.43
2023-04-30T11:46:20.660Z,19.57
2023-04-30T11:47:22.340Z,19.54
2023-04-30T11:48:23.961Z,19.57
2023-04-30T11:49:26.863Z,19.59
2023-04-30T11:50:33.820Z,19.65
2023-04-30T11:51:36.589Z,19.68
2023-04-30T11:52:39.224Z,19.77
2023-04-30T11:53:41.506Z,19.72
2023-04-30T11:54:43.023Z,19.70
2023-04-30T11:55:44.555Z,19.76
2023-04-30T11:56:50.215Z,19.86
2023-04-30T11:57:55.615Z,19.94
2023-04-30T11:58:57.195Z,20.10
2023-04-30T12:00:10.016Z,20.13
2023-04-30T12:01:11.779Z,20.18
2023-04-30T12:02:16.797Z,20.25
2023-04-30T12:03:18.638Z,20.40
2023-04-30T12:04:20.437Z,20.52
2023-04-30T12:05:25.148Z,20.63
2023-04-30T12:06:28.775Z,20.77
2023-04-30T12:07:30.493Z,20.88
2023-04-30T12:08:32.058Z,20.98
2023-04-30T12:09:33.616Z,21.10
2023-04-30T12:10:36.168Z,21.19
2023-04-30T12:11:38.890Z,21.29
2023-04-30T12:12:40.636Z,21.43
2023-04-30T12:13:50.592Z,21.56
2023-04-30T12:14:52.396Z,21.57
2023-04-30T12:15:59.409Z,21.58
2023-04-30T12:17:01.141Z,21.49
2023-04-30T12:18:13.370Z,21.35
2023-04-30T12:19:16.715Z,21.20
2023-04-30T12:20:18.775Z,21.17
2023-04-30T12:21:23.000Z,21.00
2023-04-30T12:22:24.731Z,21.00
2023-04-30T12:23:26.322Z,21.01
2023-04-30T12:24:27.965Z,21.04
2023-04-30T12:25:30.726Z,21.05
2023-04-30T12:26:40.231Z,21.09
2023-04-30T12:27:50.838Z,21.25
2023-04-30T12:28:52.688Z,21.38
2023-04-30T12:29:56.505Z,21.27
2023-04-30T12:30:59.425Z,21.14
2023-04-30T12:32:01.101Z,21.15
2023-04-30T12:33:03.716Z,21.09
2023-04-30T12:34:07.150Z,21.06
2023-04-30T12:35:13.282Z,21.09
2023-04-30T12:36:14.814Z,20.87
2023-04-30T12:37:17.404Z,20.91
2023-04-30T12:38:19.030Z,20.81
2023-04-30T12:39:20.688Z,20.70
2023-04-30T12:40:27.158Z,20.62
2023-04-30T12:41:32.608Z,20.63
2023-04-30T12:42:35.940Z,20.72
2023-04-30T12:43:37.577Z,20.60
2023-04-30T12:44:46.578Z,20.48
2023-04-30T12:45:53.175Z,20.30
2023-04-30T12:46:57.738Z,20.28
2023-04-30T12:47:59.511Z,20.34
2023-04-30T12:49:01.396Z,20.40
2023-04-30T12:50:03.101Z,20.44
2023-04-30T12:51:06.725Z,20.51
2023-04-30T12:52:13.525Z,20.57
2023-04-30T12:53:15.302Z,20.52
2023-04-30T12:54:26.092Z,20.52
2023-04-30T12:55:29.133Z,20.51
2023-04-30T12:56:31.253Z,20.47
2023-04-30T12:57:32.770Z,20.53
2023-04-30T12:58:34.402Z,20.53
2023-04-30T12:59:56.366Z,20.59
2023-04-30T13:00:59.216Z,20.64
2023-04-30T13:02:12.027Z,20.65
2023-04-30T13:03:15.004Z,20.62
2023-04-30T13:04:17.344Z,20.56
2023-04-30T13:05:18.897Z,20.36
2023-04-30T13:06:23.033Z,20.38
2023-04-30T13:07:24.892Z,20.52
2023-04-30T13:08:26.432Z,20.64
2023-04-30T13:09:27.999Z,20.71
2023-04-30T13:10:29.971Z,20.64
2023-04-30T13:11:31.516Z,20.62
2023-04-30T13:12:33.164Z,20.70
2023-04-30T13:13:34.777Z,20.87
2023-04-30T13:14:36.649Z,20.90
2023-04-30T13:15:38.626Z,20.96
2023-04-30T13:16:40.707Z,20.93
2023-04-30T13:17:42.323Z,20.97
2023-04-30T13:18:44.057Z,20.98
2023-04-30T13:19:45.603Z,21.15
2023-04-30T13:20:47.533Z,21.24
2023-04-30T13:21:49.196Z,21.30
2023-04-30T13:22:51.756Z,21.29
2023-04-30T13:23:54.516Z,21.34
2023-04-30T13:24:57.427Z,21.41
2023-04-30T13:25:58.948Z,21.38
2023-04-30T13:27:00.523Z,21.26
2023-04-30T13:28:02.727Z,21.21
2023-04-30T13:29:04.394Z,21.17
2023-04-30T13:30:06.681Z,21.19
2023-04-30T13:31:08.365Z,21.15
2023-04-30T13:32:10.265Z,21.03
2023-04-30T13:33:12.644Z,20.94
2023-04-30T13:34:15.265Z,20.84
2023-04-30T13:35:16.906Z,20.76
2023-04-30T13:36:18.485Z,20.76
2023-04-30T13:37:20.146Z,20.73